sensor_id;sensor_type;location;lat;lon;timestamp;temperature;humidity
72591;SHT31;60625;51.212;5.952;2023-02-28T00:02:57;0.18;72.60
72591;SHT31;60625;51.212;5.952;2023-02-28T00:07:58;0.15;72.75
72591;SHT31;60625;51.212;5.952;2023-02-28T00:13:00;0.11;72.75
72591;SHT31;60625;51.212;5.952;2023-02-28T00:18:04;0.02;72.96
72591;SHT31;60625;51.212;5.952;2023-02-28T00:23:05;-0.04;73.05
72591;SHT31;60625;51.212;5.952;2023-02-28T00:28:05;-0.12;73.07
72591;SHT31;60625;51.212;5.952;2023-02-28T00:33:06;-0.16;73.31
72591;SHT31;60625;51.212;5.952;2023-02-28T00:38:07;-0.16;73.47
72591;SHT31;60625;51.212;5.952;2023-02-28T00:43:09;-0.17;73.68
72591;SHT31;60625;51.212;5.952;2023-02-28T00:48:09;-0.20;73.86
72591;SHT31;60625;51.212;5.952;2023-02-28T00:53:09;-0.23;74.00
72591;SHT31;60625;51.212;5.952;2023-02-28T00:58:10;-0.27;74.34
72591;SHT31;60625;51.212;5.952;2023-02-28T01:03:10;-0.30;74.43
72591;SHT31;60625;51.212;5.952;2023-02-28T01:08:11;-0.31;74.50
72591;SHT31;60625;51.212;5.952;2023-02-28T01:13:13;-0.33;74.64
72591;SHT31;60625;51.212;5.952;2023-02-28T01:18:15;-0.31;74.83
72591;SHT31;60625;51.212;5.952;2023-02-28T01:23:16;-0.32;74.89
72591;SHT31;60625;51.212;5.952;2023-02-28T01:28:17;-0.32;75.10
72591;SHT31;60625;51.212;5.952;2023-02-28T01:33:17;-0.33;75.09
72591;SHT31;60625;51.212;5.952;2023-02-28T01:38:17;-0.36;74.96
72591;SHT31;60625;51.212;5.952;2023-02-28T01:48:30;-0.43;75.03
72591;SHT31;60625;51.212;5.952;2023-02-28T01:53:34;-0.47;75.10
72591;SHT31;60625;51.212;5.952;2023-02-28T01:58:39;-0.50;75.14
72591;SHT31;60625;51.212;5.952;2023-02-28T02:03:40;-0.51;75.07
72591;SHT31;60625;51.212;5.952;2023-02-28T02:08:40;-0.50;75.14
72591;SHT31;60625;51.212;5.952;2023-02-28T02:30:18;-0.66;75.32
72591;SHT31;60625;51.212;5.952;2023-02-28T02:46:36;-0.70;75.55
72591;SHT31;60625;51.212;5.952;2023-02-28T02:51:41;-0.75;75.61
72591;SHT31;60625;51.212;5.952;2023-02-28T02:56:45;-0.80;75.73
72591;SHT31;60625;51.212;5.952;2023-02-28T03:01:48;-0.86;75.83
72591;SHT31;60625;51.212;5.952;2023-02-28T03:06:53;-0.92;75.94
72591;SHT31;60625;51.212;5.952;2023-02-28T03:11:55;-0.96;76.11
72591;SHT31;60625;51.212;5.952;2023-02-28T03:16:59;-1.01;76.18
72591;SHT31;60625;51.212;5.952;2023-02-28T03:22:32;-1.09;76.45
72591;SHT31;60625;51.212;5.952;2023-02-28T03:28:05;-1.16;76.55
72591;SHT31;60625;51.212;5.952;2023-02-28T03:33:32;-1.24;76.91
72591;SHT31;60625;51.212;5.952;2023-02-28T03:38:45;-1.25;77.41
72591;SHT31;60625;51.212;5.952;2023-02-28T03:43:54;-1.24;77.58
72591;SHT31;60625;51.212;5.952;2023-02-28T03:49:05;-1.23;77.59
72591;SHT31;60625;51.212;5.952;2023-02-28T03:54:22;-1.26;77.71
72591;SHT31;60625;51.212;5.952;2023-02-28T03:59:30;-1.26;77.68
72591;SHT31;60625;51.212;5.952;2023-02-28T04:04:37;-1.25;77.72
72591;SHT31;60625;51.212;5.952;2023-02-28T04:09:38;-1.23;77.83
72591;SHT31;60625;51.212;5.952;2023-02-28T04:14:38;-1.21;77.88
72591;SHT31;60625;51.212;5.952;2023-02-28T04:19:39;-1.21;77.79
72591;SHT31;60625;51.212;5.952;2023-02-28T04:24:39;-1.22;77.79
72591;SHT31;60625;51.212;5.952;2023-02-28T04:29:43;-1.23;77.68
72591;SHT31;60625;51.212;5.952;2023-02-28T04:34:44;-1.24;77.67
72591;SHT31;60625;51.212;5.952;2023-02-28T04:39:45;-1.24;77.61
72591;SHT31;60625;51.212;5.952;2023-02-28T04:44:45;-1.27;77.54
72591;SHT31;60625;51.212;5.952;2023-02-28T04:49:47;-1.37;77.58
72591;SHT31;60625;51.212;5.952;2023-02-28T04:54:47;-1.41;77.64
72591;SHT31;60625;51.212;5.952;2023-02-28T04:59:48;-1.43;77.78
72591;SHT31;60625;51.212;5.952;2023-02-28T05:04:48;-1.41;77.90
72591;SHT31;60625;51.212;5.952;2023-02-28T05:09:49;-1.39;77.80
72591;SHT31;60625;51.212;5.952;2023-02-28T05:14:49;-1.37;77.82
72591;SHT31;60625;51.212;5.952;2023-02-28T05:19:49;-1.35;77.63
72591;SHT31;60625;51.212;5.952;2023-02-28T05:24:50;-1.34;77.48
72591;SHT31;60625;51.212;5.952;2023-02-28T05:29:51;-1.43;77.51
72591;SHT31;60625;51.212;5.952;2023-02-28T05:34:51;-1.51;77.74
72591;SHT31;60625;51.212;5.952;2023-02-28T05:39:52;-1.54;77.82
72591;SHT31;60625;51.212;5.952;2023-02-28T05:44:52;-1.56;77.73
72591;SHT31;60625;51.212;5.952;2023-02-28T05:49:52;-1.57;77.76
72591;SHT31;60625;51.212;5.952;2023-02-28T05:54:53;-1.57;77.85
72591;SHT31;60625;51.212;5.952;2023-02-28T05:59:53;-1.59;77.82
72591;SHT31;60625;51.212;5.952;2023-02-28T06:04:54;-1.58;77.93
72591;SHT31;60625;51.212;5.952;2023-02-28T06:09:54;-1.57;77.86
72591;SHT31;60625;51.212;5.952;2023-02-28T06:14:55;-1.60;77.82
72591;SHT31;60625;51.212;5.952;2023-02-28T06:19:55;-1.61;77.65
72591;SHT31;60625;51.212;5.952;2023-02-28T06:24:56;-1.60;77.55
72591;SHT31;60625;51.212;5.952;2023-02-28T06:29:57;-1.59;77.33
72591;SHT31;60625;51.212;5.952;2023-02-28T06:34:58;-1.60;77.24
72591;SHT31;60625;51.212;5.952;2023-02-28T06:39:58;-1.63;77.13
72591;SHT31;60625;51.212;5.952;2023-02-28T06:44:59;-1.63;77.06
72591;SHT31;60625;51.212;5.952;2023-02-28T06:49:59;-1.60;76.94
72591;SHT31;60625;51.212;5.952;2023-02-28T06:55:01;-1.57;76.85
72591;SHT31;60625;51.212;5.952;2023-02-28T07:00:07;-1.54;76.90
72591;SHT31;60625;51.212;5.952;2023-02-28T07:05:09;-1.50;76.92
72591;SHT31;60625;51.212;5.952;2023-02-28T07:10:10;-1.46;76.91
72591;SHT31;60625;51.212;5.952;2023-02-28T07:15:12;-1.43;77.04
72591;SHT31;60625;51.212;5.952;2023-02-28T07:20:13;-1.36;77.00
72591;SHT31;60625;51.212;5.952;2023-02-28T07:25:13;-1.27;76.91
72591;SHT31;60625;51.212;5.952;2023-02-28T07:30:14;-1.16;76.80
72591;SHT31;60625;51.212;5.952;2023-02-28T07:35:15;-1.07;76.83
72591;SHT31;60625;51.212;5.952;2023-02-28T07:40:16;-0.97;76.86
72591;SHT31;60625;51.212;5.952;2023-02-28T07:45:18;-0.86;76.68
72591;SHT31;60625;51.212;5.952;2023-02-28T07:50:19;-0.74;76.68
72591;SHT31;60625;51.212;5.952;2023-02-28T07:55:20;-0.62;76.57
72591;SHT31;60625;51.212;5.952;2023-02-28T08:00:20;-0.49;76.21
72591;SHT31;60625;51.212;5.952;2023-02-28T08:05:22;-0.34;75.88
72591;SHT31;60625;51.212;5.952;2023-02-28T08:10:22;-0.18;75.32
72591;SHT31;60625;51.212;5.952;2023-02-28T08:15:24;0.01;75.06
72591;SHT31;60625;51.212;5.952;2023-02-28T08:20:25;0.23;73.46
72591;SHT31;60625;51.212;5.952;2023-02-28T08:25:26;0.43;72.56
72591;SHT31;60625;51.212;5.952;2023-02-28T08:30:27;0.60;71.86
72591;SHT31;60625;51.212;5.952;2023-02-28T08:35:27;0.78;71.74
72591;SHT31;60625;51.212;5.952;2023-02-28T08:40:28;0.98;71.63
72591;SHT31;60625;51.212;5.952;2023-02-28T08:45:28;1.20;70.31
72591;SHT31;60625;51.212;5.952;2023-02-28T08:50:29;1.42;68.71
72591;SHT31;60625;51.212;5.952;2023-02-28T08:55:29;1.64;67.73
72591;SHT31;60625;51.212;5.952;2023-02-28T09:00:30;1.88;66.01
72591;SHT31;60625;51.212;5.952;2023-02-28T09:05:30;2.10;64.11
72591;SHT31;60625;51.212;5.952;2023-02-28T09:10:31;2.30;62.92
72591;SHT31;60625;51.212;5.952;2023-02-28T09:15:31;2.53;61.60
72591;SHT31;60625;51.212;5.952;2023-02-28T09:20:32;2.69;58.00
72591;SHT31;60625;51.212;5.952;2023-02-28T09:25:32;2.83;56.98
72591;SHT31;60625;51.212;5.952;2023-02-28T09:30:33;2.94;56.14
72591;SHT31;60625;51.212;5.952;2023-02-28T09:35:34;3.06;54.95
72591;SHT31;60625;51.212;5.952;2023-02-28T09:51:30;3.45;53.21
72591;SHT31;60625;51.212;5.952;2023-02-28T10:08:14;3.72;46.95
72591;SHT31;60625;51.212;5.952;2023-02-28T10:13:26;3.78;46.78
72591;SHT31;60625;51.212;5.952;2023-02-28T10:24:19;4.13;49.17
72591;SHT31;60625;51.212;5.952;2023-02-28T10:29:29;4.23;49.06
72591;SHT31;60625;51.212;5.952;2023-02-28T10:34:33;4.26;47.15
72591;SHT31;60625;51.212;5.952;2023-02-28T10:39:43;4.31;48.46
72591;SHT31;60625;51.212;5.952;2023-02-28T10:44:46;4.40;48.05
72591;SHT31;60625;51.212;5.952;2023-02-28T10:49:48;4.23;47.82
72591;SHT31;60625;51.212;5.952;2023-02-28T10:54:50;3.94;48.26
72591;SHT31;60625;51.212;5.952;2023-02-28T11:05:27;3.95;48.79
72591;SHT31;60625;51.212;5.952;2023-02-28T11:10:32;4.12;50.08
72591;SHT31;60625;51.212;5.952;2023-02-28T11:15:35;3.95;49.83
72591;SHT31;60625;51.212;5.952;2023-02-28T11:20:36;3.83;50.46
72591;SHT31;60625;51.212;5.952;2023-02-28T11:25:36;3.89;49.61
72591;SHT31;60625;51.212;5.952;2023-02-28T11:30:39;4.09;50.46
72591;SHT31;60625;51.212;5.952;2023-02-28T11:35:41;4.46;48.29
72591;SHT31;60625;51.212;5.952;2023-02-28T12:24:05;5.10;46.55
72591;SHT31;60625;51.212;5.952;2023-02-28T12:34:33;5.20;46.94
72591;SHT31;60625;51.212;5.952;2023-02-28T12:39:41;5.31;46.42
72591;SHT31;60625;51.212;5.952;2023-02-28T12:44:52;5.39;46.53
72591;SHT31;60625;51.212;5.952;2023-02-28T12:50:02;5.52;46.62
72591;SHT31;60625;51.212;5.952;2023-02-28T12:55:19;5.62;46.96
72591;SHT31;60625;51.212;5.952;2023-02-28T13:01:10;5.76;48.35
72591;SHT31;60625;51.212;5.952;2023-02-28T13:11:54;5.82;45.91
72591;SHT31;60625;51.212;5.952;2023-02-28T13:22:16;6.04;47.67
72591;SHT31;60625;51.212;5.952;2023-02-28T13:27:38;6.07;45.99
72591;SHT31;60625;51.212;5.952;2023-02-28T13:32:41;6.04;45.19
72591;SHT31;60625;51.212;5.952;2023-02-28T13:37:43;6.13;46.10
72591;SHT31;60625;51.212;5.952;2023-02-28T13:47:51;6.04;44.11
72591;SHT31;60625;51.212;5.952;2023-02-28T13:53:03;6.09;44.85
72591;SHT31;60625;51.212;5.952;2023-02-28T13:58:28;6.15;43.76
72591;SHT31;60625;51.212;5.952;2023-02-28T14:09:45;6.24;44.94
72591;SHT31;60625;51.212;5.952;2023-02-28T14:15:54;6.22;45.21
72591;SHT31;60625;51.212;5.952;2023-02-28T14:20:42;6.24;45.28
72591;SHT31;60625;51.212;5.952;2023-02-28T14:25:51;6.21;44.69
72591;SHT31;60625;51.212;5.952;2023-02-28T14:31:07;6.22;45.06
72591;SHT31;60625;51.212;5.952;2023-02-28T14:41:34;6.13;44.92
72591;SHT31;60625;51.212;5.952;2023-02-28T14:46:40;6.08;44.19
72591;SHT31;60625;51.212;5.952;2023-02-28T14:51:43;5.97;44.90
72591;SHT31;60625;51.212;5.952;2023-02-28T14:56:43;5.85;45.15
72591;SHT31;60625;51.212;5.952;2023-02-28T15:01:49;5.81;46.31
72591;SHT31;60625;51.212;5.952;2023-02-28T15:07:09;5.79;46.66
72591;SHT31;60625;51.212;5.952;2023-02-28T15:12:14;5.76;46.58
72591;SHT31;60625;51.212;5.952;2023-02-28T15:17:22;5.74;46.60
72591;SHT31;60625;51.212;5.952;2023-02-28T15:22:31;5.68;46.62
72591;SHT31;60625;51.212;5.952;2023-02-28T15:27:38;5.67;47.60
72591;SHT31;60625;51.212;5.952;2023-02-28T15:32:47;5.62;47.08
72591;SHT31;60625;51.212;5.952;2023-02-28T15:38:25;5.59;47.00
72591;SHT31;60625;51.212;5.952;2023-02-28T15:43:34;5.57;47.70
72591;SHT31;60625;51.212;5.952;2023-02-28T15:48:43;5.51;47.25
72591;SHT31;60625;51.212;5.952;2023-02-28T15:58:59;5.45;48.95
72591;SHT31;60625;51.212;5.952;2023-02-28T16:04:04;5.40;48.83
72591;SHT31;60625;51.212;5.952;2023-02-28T16:09:13;5.35;50.08
72591;SHT31;60625;51.212;5.952;2023-02-28T16:14:20;5.30;49.77
72591;SHT31;60625;51.212;5.952;2023-02-28T16:19:23;5.21;50.51
72591;SHT31;60625;51.212;5.952;2023-02-28T16:24:24;5.10;51.28
72591;SHT31;60625;51.212;5.952;2023-02-28T16:29:25;4.97;50.53
72591;SHT31;60625;51.212;5.952;2023-02-28T16:34:29;4.89;50.90
72591;SHT31;60625;51.212;5.952;2023-02-28T16:39:29;4.78;51.79
72591;SHT31;60625;51.212;5.952;2023-02-28T16:44:31;4.69;52.46
72591;SHT31;60625;51.212;5.952;2023-02-28T16:49:36;4.61;52.63
72591;SHT31;60625;51.212;5.952;2023-02-28T16:54:37;4.49;53.14
72591;SHT31;60625;51.212;5.952;2023-02-28T16:59:41;4.38;53.69
72591;SHT31;60625;51.212;5.952;2023-02-28T17:04:41;4.24;54.04
72591;SHT31;60625;51.212;5.952;2023-02-28T17:09:42;4.14;54.38
72591;SHT31;60625;51.212;5.952;2023-02-28T17:14:43;4.04;54.56
72591;SHT31;60625;51.212;5.952;2023-02-28T17:19:44;3.89;55.26
72591;SHT31;60625;51.212;5.952;2023-02-28T17:24:44;3.77;55.63
72591;SHT31;60625;51.212;5.952;2023-02-28T17:29:45;3.66;55.96
72591;SHT31;60625;51.212;5.952;2023-02-28T17:34:47;3.57;55.92
72591;SHT31;60625;51.212;5.952;2023-02-28T17:39:47;3.52;55.88
72591;SHT31;60625;51.212;5.952;2023-02-28T17:44:48;3.49;56.10
72591;SHT31;60625;51.212;5.952;2023-02-28T17:49:48;3.42;56.69
72591;SHT31;60625;51.212;5.952;2023-02-28T17:54:49;3.33;57.17
72591;SHT31;60625;51.212;5.952;2023-02-28T17:59:49;3.28;57.27
72591;SHT31;60625;51.212;5.952;2023-02-28T18:04:49;3.23;57.29
72591;SHT31;60625;51.212;5.952;2023-02-28T18:09:50;3.16;57.56
72591;SHT31;60625;51.212;5.952;2023-02-28T18:14:50;3.09;57.72
72591;SHT31;60625;51.212;5.952;2023-02-28T18:19:51;3.04;57.81
72591;SHT31;60625;51.212;5.952;2023-02-28T18:24:51;2.99;57.88
72591;SHT31;60625;51.212;5.952;2023-02-28T18:29:52;2.92;58.21
72591;SHT31;60625;51.212;5.952;2023-02-28T18:34:52;2.82;58.60
72591;SHT31;60625;51.212;5.952;2023-02-28T18:39:53;2.76;58.76
72591;SHT31;60625;51.212;5.952;2023-02-28T18:44:53;2.69;59.15
72591;SHT31;60625;51.212;5.952;2023-02-28T18:49:53;2.61;59.44
72591;SHT31;60625;51.212;5.952;2023-02-28T18:54:54;2.57;59.69
72591;SHT31;60625;51.212;5.952;2023-02-28T18:59:55;2.50;60.02
72591;SHT31;60625;51.212;5.952;2023-02-28T19:04:55;2.44;60.35
72591;SHT31;60625;51.212;5.952;2023-02-28T19:09:55;2.41;60.50
72591;SHT31;60625;51.212;5.952;2023-02-28T19:14:56;2.42;60.62
72591;SHT31;60625;51.212;5.952;2023-02-28T19:19:56;2.37;60.86
72591;SHT31;60625;51.212;5.952;2023-02-28T19:24:57;2.33;61.17
72591;SHT31;60625;51.212;5.952;2023-02-28T19:29:58;2.30;61.31
72591;SHT31;60625;51.212;5.952;2023-02-28T19:34:59;2.25;61.44
72591;SHT31;60625;51.212;5.952;2023-02-28T19:39:59;2.19;61.74
72591;SHT31;60625;51.212;5.952;2023-02-28T19:45:00;2.15;61.59
72591;SHT31;60625;51.212;5.952;2023-02-28T19:50:01;2.07;61.67
72591;SHT31;60625;51.212;5.952;2023-02-28T19:55:02;1.97;61.68
72591;SHT31;60625;51.212;5.952;2023-02-28T20:00:07;1.93;61.72
72591;SHT31;60625;51.212;5.952;2023-02-28T20:05:15;1.90;61.67
72591;SHT31;60625;51.212;5.952;2023-02-28T20:10:15;1.88;61.60
72591;SHT31;60625;51.212;5.952;2023-02-28T20:15:16;1.84;61.69
72591;SHT31;60625;51.212;5.952;2023-02-28T20:20:16;1.79;61.74
72591;SHT31;60625;51.212;5.952;2023-02-28T20:25:19;1.75;61.98
72591;SHT31;60625;51.212;5.952;2023-02-28T20:30:19;1.69;62.19
72591;SHT31;60625;51.212;5.952;2023-02-28T20:35:21;1.62;62.35
72591;SHT31;60625;51.212;5.952;2023-02-28T20:40:22;1.54;62.53
72591;SHT31;60625;51.212;5.952;2023-02-28T20:45:22;1.48;62.74
72591;SHT31;60625;51.212;5.952;2023-02-28T20:50:23;1.45;62.92
72591;SHT31;60625;51.212;5.952;2023-02-28T20:55:24;1.42;63.15
72591;SHT31;60625;51.212;5.952;2023-02-28T21:00:24;1.39;63.27
72591;SHT31;60625;51.212;5.952;2023-02-28T21:05:25;1.34;63.58
72591;SHT31;60625;51.212;5.952;2023-02-28T21:10:26;1.31;63.65
72591;SHT31;60625;51.212;5.952;2023-02-28T21:15:26;1.29;63.63
72591;SHT31;60625;51.212;5.952;2023-02-28T21:20:26;1.21;63.92
72591;SHT31;60625;51.212;5.952;2023-02-28T21:25:27;1.12;64.38
72591;SHT31;60625;51.212;5.952;2023-02-28T21:30:28;1.07;64.57
72591;SHT31;60625;51.212;5.952;2023-02-28T21:35:29;1.03;64.78
72591;SHT31;60625;51.212;5.952;2023-02-28T21:40:29;0.96;65.10
72591;SHT31;60625;51.212;5.952;2023-02-28T21:45:30;0.86;65.50
72591;SHT31;60625;51.212;5.952;2023-02-28T21:50:33;0.80;65.74
72591;SHT31;60625;51.212;5.952;2023-02-28T21:55:34;0.79;65.87
72591;SHT31;60625;51.212;5.952;2023-02-28T22:00:34;0.75;66.08
72591;SHT31;60625;51.212;5.952;2023-02-28T22:05:34;0.69;66.28
72591;SHT31;60625;51.212;5.952;2023-02-28T22:10:35;0.69;66.38
72591;SHT31;60625;51.212;5.952;2023-02-28T22:15:36;0.66;66.61
72591;SHT31;60625;51.212;5.952;2023-02-28T22:20:36;0.62;66.70
72591;SHT31;60625;51.212;5.952;2023-02-28T22:25:37;0.61;66.75
72591;SHT31;60625;51.212;5.952;2023-02-28T22:30:38;0.59;66.85
72591;SHT31;60625;51.212;5.952;2023-02-28T22:35:38;0.55;66.89
72591;SHT31;60625;51.212;5.952;2023-02-28T22:40:38;0.50;67.04
72591;SHT31;60625;51.212;5.952;2023-02-28T22:45:39;0.45;67.24
72591;SHT31;60625;51.212;5.952;2023-02-28T22:50:40;0.44;67.30
72591;SHT31;60625;51.212;5.952;2023-02-28T22:55:42;0.41;67.36
72591;SHT31;60625;51.212;5.952;2023-02-28T23:00:42;0.38;67.43
72591;SHT31;60625;51.212;5.952;2023-02-28T23:05:42;0.36;67.52
72591;SHT31;60625;51.212;5.952;2023-02-28T23:10:43;0.35;67.68
72591;SHT31;60625;51.212;5.952;2023-02-28T23:15:44;0.34;67.70
72591;SHT31;60625;51.212;5.952;2023-02-28T23:20:45;0.34;67.71
72591;SHT31;60625;51.212;5.952;2023-02-28T23:25:46;0.35;67.74
72591;SHT31;60625;51.212;5.952;2023-02-28T23:30:46;0.34;67.72
72591;SHT31;60625;51.212;5.952;2023-02-28T23:35:47;0.32;67.82
72591;SHT31;60625;51.212;5.952;2023-02-28T23:40:47;0.29;67.88
72591;SHT31;60625;51.212;5.952;2023-02-28T23:45:54;0.28;67.94
72591;SHT31;60625;51.212;5.952;2023-02-28T23:50:59;0.27;67.99
72591;SHT31;60625;51.212;5.952;2023-02-28T23:56:14;0.22;68.01
